Map

Track Data

SID SEASON NUMBER BASIN SUBBASIN NAME ISO_TIME NATURE LAT LON WMO_WIND WMO_PRES WMO_AGENCY TRACK_TYPE DIST2LAND LANDFALL IFLAG USA_AGENCY USA_ATCF_ID USA_LAT USA_LON USA_RECORD USA_STATUS USA_WIND USA_PRES USA_SSHS USA_R34_NE USA_R34_SE USA_R34_SW USA_R34_NW USA_R50_NE USA_R50_SE USA_R50_SW USA_R50_NW USA_R64_NE USA_R64_SE USA_R64_SW USA_R64_NW USA_POCI USA_ROCI USA_RMW USA_EYE TOKYO_LAT TOKYO_LON TOKYO_GRADE TOKYO_WIND TOKYO_PRES TOKYO_R50_DIR TOKYO_R50_LONG TOKYO_R50_SHORT TOKYO_R30_DIR TOKYO_R30_LONG TOKYO_R30_SHORT TOKYO_LAND CMA_LAT CMA_LON CMA_CAT CMA_WIND CMA_PRES HKO_LAT HKO_LON HKO_CAT HKO_WIND HKO_PRES NEWDELHI_LAT NEWDELHI_LON NEWDELHI_GRADE NEWDELHI_WIND NEWDELHI_PRES NEWDELHI_CI NEWDELHI_DP NEWDELHI_POCI REUNION_LAT REUNION_LON REUNION_TYPE REUNION_WIND REUNION_PRES REUNION_TNUM REUNION_CI REUNION_RMW REUNION_R34_NE REUNION_R34_SE REUNION_R34_SW REUNION_R34_NW REUNION_R50_NE REUNION_R50_SE REUNION_R50_SW REUNION_R50_NW REUNION_R64_NE REUNION_R64_SE REUNION_R64_SW REUNION_R64_NW BOM_LAT BOM_LON BOM_TYPE BOM_WIND BOM_PRES BOM_TNUM BOM_CI BOM_RMW BOM_R34_NE BOM_R34_SE BOM_R34_SW BOM_R34_NW BOM_R50_NE BOM_R50_SE BOM_R50_SW BOM_R50_NW BOM_R64_NE BOM_R64_SE BOM_R64_SW BOM_R64_NW BOM_ROCI BOM_POCI BOM_EYE BOM_POS_METHOD BOM_PRES_METHOD NADI_LAT NADI_LON NADI_CAT NADI_WIND NADI_PRES WELLINGTON_LAT WELLINGTON_LON WELLINGTON_WIND WELLINGTON_PRES DS824_LAT DS824_LON DS824_STAGE DS824_WIND DS824_PRES TD9636_LAT TD9636_LON TD9636_STAGE TD9636_WIND TD9636_PRES TD9635_LAT TD9635_LON TD9635_WIND TD9635_PRES TD9635_ROCI NEUMANN_LAT NEUMANN_LON NEUMANN_CLASS NEUMANN_WIND NEUMANN_PRES MLC_LAT MLC_LON MLC_CLASS MLC_WIND MLC_PRES USA_GUST BOM_GUST BOM_GUST_PER REUNION_GUST REUNION_GUST_PER USA_SEAHGT USA_SEARAD_NE USA_SEARAD_SE USA_SEARAD_SW USA_SEARAD_NW STORM_SPEED STORM_DIR
1933219N18114 1933 38 WP MM NOT_NAMED 1933-08-07 10:00:00 NR 17.5000 114.300 main 419 413 __________O___ -1 17.5000 114.300 7 4 350
1933219N18114 1933 38 WP MM NOT_NAMED 1933-08-07 12:00:00 NR 17.6290 114.283 main 413 401 __________P___ -1 17.6290 114.283 7 4 354
1933219N18114 1933 38 WP MM NOT_NAMED 1933-08-07 15:00:00 NR 17.8242 114.258 main 401 381 __________P___ -1 17.8242 114.258 7 4 356
1933219N18114 1933 38 WP MM NOT_NAMED 1933-08-07 18:00:00 NR 18.0235 114.233 main 381 371 __________P___ -1 18.0235 114.233 7 4 354
1933219N18114 1933 38 WP MM NOT_NAMED 1933-08-07 21:00:00 NR 18.2294 114.208 main 371 366 __________P___ -1 18.2294 114.208 7 4 351
1933219N18114 1933 38 WP MM NOT_NAMED 1933-08-07 22:00:00 NR 18.3000 114.200 main 366 362 __________O___ -1 18.3000 114.200 3 4 0
1933219N18114 1933 38 WP MM NOT_NAMED 1933-08-08 00:00:00 NR 18.4443 114.183 main 362 350 __________P___ -1 18.4443 114.183 3 4 354
1933219N18114 1933 38 WP MM NOT_NAMED 1933-08-08 03:00:00 NR 18.6670 114.151 main 350 334 __________P___ -1 18.6670 114.151 3 5 351
1933219N18114 1933 38 WP MM NOT_NAMED 1933-08-08 06:00:00 NR 18.8945 114.103 main 334 319 __________P___ -1 18.8945 114.103 3 5 346
1933219N18114 1933 38 WP MM NOT_NAMED 1933-08-08 09:00:00 NR 19.1237 114.031 main 319 317 __________P___ -1 19.1237 114.031 3 5 342
1933219N18114 1933 38 WP MM NOT_NAMED 1933-08-08 10:00:00 NR 19.2000 114.000 main 317 294 __________O___ -1 19.2000 114.000 4 5 341
1933219N18114 1933 38 WP MM NOT_NAMED 1933-08-08 12:00:00 NR 19.3683 113.933 main 294 270 __________P___ -1 19.3683 113.933 4 6 337
1933219N18114 1933 38 WP MM NOT_NAMED 1933-08-08 15:00:00 NR 19.6212 113.809 main 270 235 __________P___ -1 19.6212 113.809 4 6 332
1933219N18114 1933 38 WP MM NOT_NAMED 1933-08-08 18:00:00 NR 19.8552 113.654 main 235 218 __________P___ -1 19.8552 113.654 4 5 323
1933219N18114 1933 38 WP MM NOT_NAMED 1933-08-08 21:00:00 NR 20.0484 113.468 main 218 205 __________P___ -1 20.0484 113.468 4 5 316
1933219N18114 1933 38 WP MM NOT_NAMED 1933-08-08 22:00:00 NR 20.1000 113.400 main 205 192 __________O___ -1 20.1000 113.400 4 5 305
1933219N18114 1933 38 WP MM NOT_NAMED 1933-08-09 00:00:00 NR 20.1812 113.261 main 192 172 __________P___ -1 20.1812 113.261 4 5 294
1933219N18114 1933 38 WP MM NOT_NAMED 1933-08-09 03:00:00 NR 20.2589 113.028 main 172 164 __________P___ -1 20.2589 113.028 4 5 284
1933219N18114 1933 38 WP MM NOT_NAMED 1933-08-09 06:00:00 NR 20.2950 112.771 main 164 157 __________P___ -1 20.2950 112.771 4 5 275
1933219N18114 1933 38 WP MM NOT_NAMED 1933-08-09 09:00:00 NR 20.3020 112.495 main 157 156 __________P___ -1 20.3020 112.495 4 5 271
1933219N18114 1933 38 WP MM NOT_NAMED 1933-08-09 10:00:00 NR 20.3000 112.400 main 156 142 __________O___ -1 20.3000 112.400 4 5 265
1933219N18114 1933 38 WP MM NOT_NAMED 1933-08-09 12:00:00 NR 20.2816 112.240 main 142 119 __________P___ -1 20.2816 112.240 4 5 260
1933219N18114 1933 38 WP MM NOT_NAMED 1933-08-09 15:00:00 NR 20.2348 111.988 main 119 90 __________P___ -1 20.2348 111.988 4 5 260
1933219N18114 1933 38 WP MM NOT_NAMED 1933-08-09 18:00:00 NR 20.1932 111.697 main 90 53 __________P___ -1 20.1932 111.697 4 6 266
1933219N18114 1933 38 WP MM NOT_NAMED 1933-08-09 21:00:00 NR 20.1881 111.339 main 53 45 __________P___ -1 20.1881 111.339 4 7 271
1933219N18114 1933 38 WP MM NOT_NAMED 1933-08-09 22:00:00 NR 20.2000 111.200 main 45 23 __________O___ -1 20.2000 111.200 4 9 277
1933219N18114 1933 38 WP MM NOT_NAMED 1933-08-10 00:00:00 NR 20.2420 110.879 main 23 0 __________P___ -1 20.2420 110.879 4 10 280
1933219N18114 1933 38 WP MM NOT_NAMED 1933-08-10 03:00:00 NR 20.3486 110.329 main 0 0 __________P___ -1 20.3486 110.329 4 11 284
1933219N18114 1933 38 WP MM NOT_NAMED 1933-08-10 06:00:00 NR 20.5071 109.726 main 10 10 __________P___ -1 20.5071 109.726 4 12 288
1933219N18114 1933 38 WP MM NOT_NAMED 1933-08-10 09:00:00 NR 20.7180 109.105 main 63 63 __________P___ -1 20.7180 109.105 4 12 291
1933219N18114 1933 38 WP MM NOT_NAMED 1933-08-10 10:00:00 NR 20.8000 108.900 main 73 63 __________O___ -1 20.8000 108.900 4 13 295
1933219N18114 1933 38 WP MM NOT_NAMED 1933-08-10 12:00:00 NR 20.9811 108.499 main 63 11 __________P___ -1 20.9811 108.499 4 13 298
1933219N18114 1933 38 WP MM NOT_NAMED 1933-08-10 15:00:00 NR 21.2883 107.916 main 11 0 __________P___ -1 21.2883 107.916 4 13 301
1933219N18114 1933 38 WP MM NOT_NAMED 1933-08-10 18:00:00 NR 21.6261 107.347 main 0 0 __________P___ -1 21.6261 107.347 4 13 303
1933219N18114 1933 38 WP MM NOT_NAMED 1933-08-10 21:00:00 NR 21.9806 106.787 main 0 0 __________P___ -1 21.9806 106.787 4 13 304
1933219N18114 1933 38 WP MM NOT_NAMED 1933-08-10 22:00:00 NR 22.1000 106.600 main 0 __________O___ -1 22.1000 106.600 7 13 305

Digital Typhoon Data and Search

About IBTrACS Database

This database is a web-friendly format of International Best Track Archive for Climate Stewardship (IBTrACS), a global best track data archive curated by NOAA dating back to 1842.

Updated: 2021-11-26